KSKX

Taos Regional Airport

Taos, New Mexico, USA
METAR KSKX 121756Z AUTO 22008KT 10SM CLR 06/M06 A3001 RMK AO2 SLP163 T00561056 10056 21106 58017 $
Observed Flight Rules
Dec-12 @ 17:56 UTC (52 minutes ago) Visual Flight Rules
Wind Visibility Clouds
220° at 8 knots 10 miles
  • Clear skies
Temperatures Readings
Current 6°C / 43°F
Dewpoint -6°C / 21°F
Humidity 42%
Altimeter 30.01" Hg
Pressure 1016.3 hPa
Elevation 2161
METAR KSKX 121756Z AUTO 22008KT 10SM CLR 06/M06 A3001 RMK AO2 SLP163 T00561056 10056 21106 58017 $
Observed Flight Rules
Dec-12 @ 17:56 UTC
(52 minutes ago)
VFR
Wind Visibility
220° at 8 knots 10 miles
Clouds
  • Clear skies
Temperature Dewpoint
6°C / 43°F -6°C / 21°F
Humidity Altimeter Pressure
42% 30.01" Hg 1016.3 hPa